Pauini, Brazil
Current Conditions -  °F | °C
As of 8:00 PM on Friday 24 Oct 2014 (Local Time) from SBRB Reporting Station
Thunderstorm Thunderstorm  
Wind Chill: 77°   Ceiling: 10000
Heat Index: 78°   Visibility: 6mi
Dew Point: 73°   Wind: 3mph
Humidity: 89%   Direction: 330°NNW
Pressure: 29.8"   Gusts: NA
Location:  7.66°S, 66.98°W
Report Text: SBRB 250000Z 33003KT 9999 TS SCT015 FEW020CB BKN100 25/23 Q1009
Loading
Personal Weather Stations






























Interactive Weather Map
Tropical Storm Tracking
New forecast layout! Learn more

10-Day Weather Forecast

Advertisements
Track Severe Weather on mobile